createdAt,value
2022-11-19T00:00:13.257Z,1.20
2022-11-19T00:02:43.214Z,0.30
2022-11-19T00:05:11.658Z,0.30
2022-11-19T00:07:40.209Z,0.87
2022-11-19T00:10:09.077Z,0.43
2022-11-19T00:12:55.606Z,0.47
2022-11-19T00:15:24.580Z,0.20
2022-11-19T00:17:54.290Z,0.23
2022-11-19T00:20:22.624Z,0.10
2022-11-19T00:22:52.854Z,0.20
2022-11-19T00:25:21.690Z,0.23
2022-11-19T00:27:50.031Z,0.53
2022-11-19T00:30:46.227Z,0.20
2022-11-19T00:33:10.045Z,0.40
2022-11-19T00:35:38.351Z,1.30
2022-11-19T00:38:06.736Z,0.20
2022-11-19T00:40:35.089Z,0.30
2022-11-19T00:43:20.806Z,1.60
2022-11-19T00:45:50.296Z,0.30
2022-11-19T00:48:19.994Z,0.70
2022-11-19T00:50:48.351Z,0.23
2022-11-19T00:53:16.698Z,0.10
2022-11-19T00:55:45.382Z,1.00
2022-11-19T00:58:13.908Z,1.90
2022-11-19T01:00:42.282Z,0.50
2022-11-19T01:03:10.679Z,0.50
2022-11-19T01:05:40.479Z,0.80
2022-11-19T01:08:08.810Z,0.63
2022-11-19T01:10:37.254Z,0.57
2022-11-19T01:13:23.147Z,0.50
2022-11-19T01:15:52.289Z,0.20
2022-11-19T01:18:21.407Z,2.23
2022-11-19T01:20:51.089Z,2.80
2022-11-19T01:23:19.617Z,0.97
2022-11-19T01:25:47.958Z,0.77
2022-11-19T01:28:16.531Z,0.57
2022-11-19T01:30:45.377Z,1.87
2022-11-19T01:33:14.026Z,0.33
2022-11-19T01:35:42.406Z,0.27
2022-11-19T01:38:12.122Z,0.53
2022-11-19T01:40:45.573Z,1.00
2022-11-19T01:43:14.588Z,0.97
2022-11-19T01:45:45.149Z,0.73
2022-11-19T01:48:18.678Z,0.30
2022-11-19T01:50:51.090Z,0.70
2022-11-19T01:53:23.498Z,0.60
2022-11-19T01:55:52.630Z,2.17
2022-11-19T01:58:25.181Z,0.73
2022-11-19T02:00:53.553Z,0.80
2022-11-19T02:03:22.099Z,1.50
2022-11-19T02:05:51.375Z,4.33
2022-11-19T02:08:42.462Z,2.97
2022-11-19T02:11:45.465Z,3.10
2022-11-19T02:14:28.973Z,0.73
2022-11-19T02:17:07.423Z,2.73
2022-11-19T02:20:00.843Z,2.37
2022-11-19T02:22:51.445Z,1.40
2022-11-19T02:25:36.071Z,0.63
2022-11-19T02:28:28.553Z,1.57
2022-11-19T02:31:07.785Z,0.80
2022-11-19T02:33:42.067Z,0.93
2022-11-19T02:36:18.974Z,0.60
2022-11-19T02:38:51.820Z,1.13
2022-11-19T02:41:37.417Z,1.27
2022-11-19T02:44:36.435Z,1.07
2022-11-19T02:47:09.821Z,1.33
2022-11-19T02:49:43.963Z,1.00
2022-11-19T02:52:13.294Z,0.47
2022-11-19T02:54:41.890Z,2.90
2022-11-19T02:57:12.258Z,0.40
2022-11-19T03:00:02.865Z,0.53
2022-11-19T03:02:57.927Z,2.17
2022-11-19T03:05:32.382Z,2.30
2022-11-19T03:08:01.094Z,0.63
2022-11-19T03:10:39.918Z,0.70
2022-11-19T03:13:29.100Z,0.93
2022-11-19T03:16:17.268Z,0.40
2022-11-19T03:18:51.895Z,0.50
2022-11-19T03:21:26.850Z,0.40
2022-11-19T03:24:00.101Z,0.97
2022-11-19T03:26:31.586Z,0.40
2022-11-19T03:29:03.977Z,1.17
2022-11-19T03:31:35.622Z,1.67
2022-11-19T03:34:11.446Z,0.77
2022-11-19T03:36:42.158Z,0.40
2022-11-19T03:39:14.268Z,0.47
2022-11-19T03:41:46.133Z,0.50
2022-11-19T03:44:19.540Z,0.70
2022-11-19T03:46:52.258Z,0.80
2022-11-19T03:49:29.022Z,0.60
2022-11-19T03:52:02.104Z,1.00
2022-11-19T03:54:30.654Z,1.30
2022-11-19T03:57:00.569Z,0.97
2022-11-19T03:59:30.220Z,2.00
2022-11-19T04:02:02.813Z,1.60
2022-11-19T04:04:38.619Z,1.77
2022-11-19T04:07:08.532Z,1.70
2022-11-19T04:09:37.958Z,2.07
2022-11-19T04:12:08.331Z,2.00
2022-11-19T04:14:36.641Z,3.60
2022-11-19T04:17:04.970Z,2.03
2022-11-19T04:19:34.672Z,2.10
2022-11-19T04:22:03.058Z,2.30
2022-11-19T04:24:31.706Z,2.83
2022-11-19T04:27:00.171Z,2.33
2022-11-19T04:29:28.599Z,2.07
2022-11-19T04:31:56.958Z,1.87
2022-11-19T04:34:25.325Z,1.97
2022-11-19T04:36:55.162Z,2.03
2022-11-19T04:39:23.750Z,3.63
2022-11-19T04:41:52.205Z,2.87
2022-11-19T04:44:20.507Z,3.63
2022-11-19T04:46:48.800Z,2.53
2022-11-19T04:49:17.248Z,3.33
2022-11-19T04:51:45.721Z,3.90
2022-11-19T04:54:15.434Z,3.40
2022-11-19T04:56:43.801Z,4.20
2022-11-19T04:59:12.134Z,5.73
2022-11-19T05:01:40.527Z,4.33
2022-11-19T05:04:08.901Z,6.27
2022-11-19T05:06:37.189Z,4.43
2022-11-19T05:09:05.620Z,4.17
2022-11-19T05:11:35.317Z,4.47
2022-11-19T05:14:03.661Z,4.70
2022-11-19T05:16:31.991Z,5.53
2022-11-19T05:19:00.373Z,5.53
2022-11-19T05:21:28.928Z,5.73
2022-11-19T05:23:57.345Z,4.17
2022-11-19T05:26:25.613Z,4.60
2022-11-19T05:28:55.565Z,3.97
2022-11-19T05:31:23.867Z,4.13
2022-11-19T05:33:55.510Z,4.90
2022-11-19T05:36:23.809Z,4.20
2022-11-19T05:38:52.105Z,5.33
2022-11-19T05:41:20.481Z,4.77
2022-11-19T05:43:48.985Z,4.80
2022-11-19T05:46:18.684Z,4.57
2022-11-19T05:48:47.053Z,6.60
2022-11-19T05:51:16.007Z,5.23
2022-11-19T05:53:44.757Z,8.30
2022-11-19T05:56:13.244Z,7.50
2022-11-19T05:58:41.552Z,12.83
2022-11-19T06:01:09.937Z,5.77
2022-11-19T06:03:40.610Z,6.27
2022-11-19T06:06:09.608Z,5.77
2022-11-19T06:08:37.921Z,5.67
2022-11-19T06:11:06.478Z,21.63
2022-11-19T06:13:34.834Z,11.67
2022-11-19T06:16:03.158Z,4.70
2022-11-19T06:18:31.486Z,4.37
2022-11-19T06:21:01.337Z,5.00
2022-11-19T06:23:29.808Z,5.30
2022-11-19T06:25:58.521Z,5.40
2022-11-19T06:28:26.906Z,4.17
2022-11-19T06:30:55.297Z,5.17
2022-11-19T06:33:23.642Z,5.50
2022-11-19T06:35:51.994Z,3.27
2022-11-19T06:38:21.615Z,4.50
2022-11-19T06:40:49.941Z,3.43
2022-11-19T06:43:18.249Z,6.20
2022-11-19T06:45:46.537Z,4.17
2022-11-19T06:48:14.893Z,5.57
2022-11-19T06:50:43.384Z,5.13
2022-11-19T06:53:13.086Z,3.73
2022-11-19T06:55:42.802Z,4.50
2022-11-19T06:58:11.125Z,7.30
2022-11-19T07:00:39.494Z,9.00
2022-11-19T07:03:08.006Z,8.33
2022-11-19T07:05:36.305Z,11.07
2022-11-19T07:08:04.672Z,6.90
2022-11-19T07:10:33.825Z,12.13
2022-11-19T07:13:03.562Z,36.00
2022-11-19T07:15:31.970Z,5.87
2022-11-19T07:18:01.615Z,5.93
2022-11-19T07:20:30.123Z,5.53
2022-11-19T07:22:59.483Z,15.17
2022-11-19T07:25:28.206Z,4.80
2022-11-19T07:27:56.538Z,5.23
2022-11-19T07:30:26.214Z,5.30
2022-11-19T07:32:54.927Z,6.03
2022-11-19T07:35:23.303Z,5.00
2022-11-19T07:37:51.633Z,5.70
2022-11-19T07:40:20.139Z,6.13
2022-11-19T07:42:50.448Z,4.50
2022-11-19T07:45:20.375Z,5.67
2022-11-19T07:47:50.489Z,4.90
2022-11-19T07:50:18.890Z,5.07
2022-11-19T07:52:47.271Z,5.20
2022-11-19T07:55:15.899Z,4.87
2022-11-19T07:57:44.822Z,5.63
2022-11-19T08:00:14.570Z,6.47
2022-11-19T08:02:42.842Z,4.27
2022-11-19T08:05:12.952Z,6.10
2022-11-19T08:07:42.509Z,4.53
2022-11-19T08:10:12.231Z,6.57
2022-11-19T08:12:40.538Z,4.60
2022-11-19T08:15:10.165Z,6.57
2022-11-19T08:17:56.126Z,4.87
2022-11-19T08:20:25.823Z,9.67
2022-11-19T08:22:54.158Z,5.87
2022-11-19T08:25:22.537Z,8.43
2022-11-19T08:27:50.861Z,5.67
2022-11-19T08:30:19.309Z,5.83
2022-11-19T08:32:47.617Z,5.10
2022-11-19T08:35:16.027Z,5.40
2022-11-19T08:37:47.383Z,4.70
2022-11-19T08:40:16.371Z,4.40
2022-11-19T08:43:02.369Z,6.33
2022-11-19T08:45:32.717Z,4.83
2022-11-19T08:48:02.870Z,3.50
2022-11-19T08:50:32.858Z,3.20
2022-11-19T08:53:03.965Z,7.00
2022-11-19T08:55:33.277Z,4.00
2022-11-19T08:58:03.005Z,5.17
2022-11-19T09:00:32.476Z,3.30
2022-11-19T09:03:00.930Z,4.43
2022-11-19T09:05:29.389Z,3.83
2022-11-19T09:07:57.818Z,4.10
2022-11-19T09:10:27.714Z,5.67
2022-11-19T09:12:56.262Z,5.17
2022-11-19T09:15:24.791Z,3.53
2022-11-19T09:17:53.401Z,3.40
2022-11-19T09:20:21.932Z,4.10
2022-11-19T09:22:52.284Z,5.13
2022-11-19T09:25:20.835Z,4.97
2022-11-19T09:27:50.548Z,3.13
2022-11-19T09:30:20.863Z,4.30
2022-11-19T09:32:49.177Z,3.20
2022-11-19T09:35:17.604Z,5.73
2022-11-19T09:37:46.053Z,3.70
2022-11-19T09:40:17.617Z,4.83
2022-11-19T09:42:58.906Z,3.50
2022-11-19T09:45:42.867Z,5.47
2022-11-19T09:48:23.220Z,5.60
2022-11-19T09:50:55.139Z,4.17
2022-11-19T09:53:24.430Z,3.50
2022-11-19T09:55:54.951Z,8.03
2022-11-19T09:58:31.753Z,2.40
2022-11-19T10:01:00.236Z,2.53
2022-11-19T10:03:33.435Z,3.57
2022-11-19T10:06:24.749Z,7.33
2022-11-19T10:09:11.622Z,2.83
2022-11-19T10:11:54.181Z,1.70
2022-11-19T10:14:46.216Z,3.87
2022-11-19T10:17:27.481Z,2.20
2022-11-19T10:20:15.074Z,3.60
2022-11-19T10:22:57.012Z,3.37
2022-11-19T10:25:29.518Z,3.07
2022-11-19T10:28:05.092Z,2.93
2022-11-19T10:30:35.508Z,3.00
2022-11-19T10:33:12.085Z,2.93
2022-11-19T10:35:44.649Z,2.60
2022-11-19T10:38:20.745Z,4.00
2022-11-19T10:40:52.977Z,3.20
2022-11-19T10:43:28.033Z,3.07
2022-11-19T10:46:01.286Z,2.83
2022-11-19T10:48:38.492Z,2.93
2022-11-19T10:51:14.175Z,2.40
2022-11-19T10:53:42.866Z,3.43
2022-11-19T10:56:15.389Z,2.00
2022-11-19T10:58:48.015Z,2.30
2022-11-19T11:01:26.508Z,2.87
2022-11-19T11:04:05.534Z,2.37
2022-11-19T11:06:52.505Z,3.07
2022-11-19T11:09:34.830Z,3.00
2022-11-19T11:12:29.702Z,2.87
2022-11-19T11:15:01.757Z,4.50
2022-11-19T11:17:35.188Z,2.67
2022-11-19T11:20:06.969Z,1.60
2022-11-19T11:22:36.982Z,4.83
2022-11-19T11:25:14.317Z,18.33
2022-11-19T11:27:43.228Z,3.30
2022-11-19T11:30:19.442Z,2.40
2022-11-19T11:32:49.242Z,1.13
2022-11-19T11:35:33.387Z,4.70
2022-11-19T11:38:03.658Z,2.10
2022-11-19T11:40:33.013Z,1.73
2022-11-19T11:43:01.629Z,0.97
2022-11-19T11:45:32.848Z,0.70
2022-11-19T11:48:08.672Z,0.50
2022-11-19T11:50:38.141Z,2.30
2022-11-19T11:53:10.437Z,2.73
2022-11-19T11:55:39.977Z,0.77
2022-11-19T11:58:26.447Z,0.83
2022-11-19T12:00:56.224Z,0.67
2022-11-19T12:03:26.010Z,1.37
2022-11-19T12:06:05.238Z,0.40
2022-11-19T12:08:49.965Z,1.70
2022-11-19T12:11:25.198Z,0.97
2022-11-19T12:13:58.671Z,1.73
2022-11-19T12:16:43.105Z,1.20
2022-11-19T12:19:27.597Z,1.60
2022-11-19T12:22:05.422Z,10.77
2022-11-19T12:24:49.573Z,4.30
2022-11-19T12:27:28.085Z,1.10
2022-11-19T12:30:05.263Z,1.30
2022-11-19T12:32:51.666Z,0.40
2022-11-19T12:35:36.207Z,0.87
2022-11-19T12:38:22.381Z,1.30
2022-11-19T12:40:59.414Z,0.90
2022-11-19T12:43:47.559Z,1.27
2022-11-19T12:46:21.665Z,1.67
2022-11-19T12:49:04.513Z,12.73
2022-11-19T12:51:45.636Z,2.80
2022-11-19T12:54:33.478Z,1.13
2022-11-19T12:57:18.401Z,0.80
2022-11-19T13:00:05.257Z,3.57
2022-11-19T13:02:41.121Z,1.07
2022-11-19T13:05:18.016Z,3.27
2022-11-19T13:07:52.730Z,0.30
2022-11-19T13:10:26.198Z,2.17
2022-11-19T13:12:57.308Z,0.70
2022-11-19T13:15:29.162Z,1.60
2022-11-19T13:18:01.189Z,3.20
2022-11-19T13:20:38.096Z,0.67
2022-11-19T13:23:08.205Z,0.57
2022-11-19T13:25:41.146Z,0.53
2022-11-19T13:28:19.674Z,0.87
2022-11-19T13:30:51.998Z,0.83
2022-11-19T13:33:26.707Z,0.80
2022-11-19T13:36:03.664Z,1.10
2022-11-19T13:38:44.605Z,1.73
2022-11-19T13:41:17.254Z,1.10
2022-11-19T13:44:03.643Z,2.77
2022-11-19T13:46:37.985Z,1.70
2022-11-19T13:49:13.673Z,3.00
2022-11-19T13:51:46.265Z,0.87
2022-11-19T13:54:25.563Z,1.10
2022-11-19T13:56:57.218Z,0.60
2022-11-19T13:59:30.814Z,1.50
2022-11-19T14:02:24.575Z,0.87
2022-11-19T14:05:12.262Z,0.80
2022-11-19T14:08:02.773Z,1.07
2022-11-19T14:10:40.374Z,0.80
2022-11-19T14:13:23.494Z,1.73
2022-11-19T14:16:23.388Z,0.53
2022-11-19T14:19:12.889Z,1.53
2022-11-19T14:22:05.501Z,1.60
2022-11-19T14:25:10.306Z,1.70
2022-11-19T14:27:40.777Z,1.17
2022-11-19T14:30:20.731Z,1.50
2022-11-19T14:32:52.051Z,2.57
2022-11-19T14:35:32.117Z,4.23
2022-11-19T14:38:34.300Z,9.37
2022-11-19T14:41:08.255Z,7.20
2022-11-19T14:44:10.699Z,7.13
2022-11-19T14:46:44.802Z,1.70
2022-11-19T14:49:33.011Z,1.30
2022-11-19T14:52:02.395Z,1.10
2022-11-19T14:54:39.510Z,0.80
2022-11-19T14:57:18.106Z,1.50
2022-11-19T14:59:51.962Z,0.63
2022-11-19T15:02:25.625Z,1.60
2022-11-19T15:05:04.990Z,1.43
2022-11-19T15:07:42.937Z,1.77
2022-11-19T15:10:33.825Z,6.00
2022-11-19T15:13:23.656Z,14.73
2022-11-19T15:15:57.634Z,14.27
2022-11-19T15:19:06.774Z,2.40
2022-11-19T15:22:13.669Z,2.17
2022-11-19T15:24:57.258Z,1.23
2022-11-19T15:27:42.098Z,6.37
2022-11-19T15:30:16.988Z,1.60
2022-11-19T15:33:08.616Z,2.07
2022-11-19T15:36:01.689Z,14.50
2022-11-19T15:38:36.854Z,18.67
2022-11-19T15:41:07.172Z,10.07
2022-11-19T15:43:41.991Z,2.10
2022-11-19T15:46:14.013Z,1.23
2022-11-19T15:48:57.586Z,1.43
2022-11-19T15:51:26.146Z,2.47
2022-11-19T15:54:01.564Z,5.13
2022-11-19T15:56:33.573Z,10.90
2022-11-19T15:59:03.906Z,18.93
2022-11-19T16:01:35.684Z,16.23
2022-11-19T16:04:10.134Z,21.50
2022-11-19T16:06:40.185Z,24.47
2022-11-19T16:09:15.231Z,16.50
2022-11-19T16:12:01.222Z,4.53
2022-11-19T16:14:48.572Z,6.17
2022-11-19T16:17:41.813Z,9.13
2022-11-19T16:20:21.892Z,13.00
2022-11-19T16:22:58.634Z,4.73
2022-11-19T16:25:34.509Z,9.70
2022-11-19T16:28:06.641Z,7.37
2022-11-19T16:30:46.172Z,8.77
2022-11-19T16:33:18.208Z,11.03
2022-11-19T16:35:52.587Z,10.93
2022-11-19T16:38:28.298Z,10.57
2022-11-19T16:41:16.121Z,10.63
2022-11-19T16:43:48.554Z,10.77
2022-11-19T16:46:20.153Z,12.20
2022-11-19T16:48:58.293Z,12.90
2022-11-19T16:51:52.161Z,11.73
2022-11-19T16:54:45.589Z,10.63
2022-11-19T16:57:17.188Z,22.10
2022-11-19T16:59:49.449Z,17.07
2022-11-19T17:02:20.546Z,29.80
2022-11-19T17:04:51.578Z,16.97
2022-11-19T17:07:26.805Z,20.30
2022-11-19T17:10:10.822Z,15.53
2022-11-19T17:12:50.774Z,12.20
2022-11-19T17:15:38.671Z,11.83
2022-11-19T17:18:16.429Z,9.57
2022-11-19T17:20:52.788Z,6.13
2022-11-19T17:23:25.555Z,4.33
2022-11-19T17:25:57.229Z,5.63
2022-11-19T17:28:40.856Z,5.40
2022-11-19T17:31:16.979Z,7.13
2022-11-19T17:33:56.679Z,12.73
2022-11-19T17:36:26.482Z,6.37
2022-11-19T17:38:56.165Z,4.97
2022-11-19T17:41:44.503Z,4.13
2022-11-19T17:44:34.800Z,3.33
2022-11-19T17:47:04.201Z,4.80
2022-11-19T17:49:34.129Z,6.27
2022-11-19T17:52:02.524Z,5.93
2022-11-19T17:54:32.863Z,8.73
2022-11-19T17:57:01.346Z,12.60
2022-11-19T17:59:29.997Z,10.07
2022-11-19T18:01:58.522Z,9.17
2022-11-19T18:04:27.213Z,7.20
2022-11-19T18:06:55.908Z,5.87
2022-11-19T18:09:24.429Z,5.87
2022-11-19T18:11:54.849Z,9.47
2022-11-19T18:14:23.204Z,11.40
2022-11-19T18:16:51.607Z,10.90
2022-11-19T18:19:26.346Z,10.07
2022-11-19T18:21:54.994Z,12.33
2022-11-19T18:24:24.246Z,14.83
2022-11-19T18:26:53.962Z,11.87
2022-11-19T18:29:22.991Z,11.80
2022-11-19T18:31:53.304Z,11.63
2022-11-19T18:34:23.550Z,12.50
2022-11-19T18:36:52.222Z,15.47
2022-11-19T18:39:20.937Z,13.70
2022-11-19T18:41:49.553Z,23.33
2022-11-19T18:44:33.441Z,13.30
2022-11-19T18:47:02.978Z,13.60
2022-11-19T18:49:33.533Z,6.10
2022-11-19T18:52:02.383Z,6.60
2022-11-19T18:54:30.846Z,8.23
2022-11-19T18:56:59.464Z,7.23
2022-11-19T18:59:30.504Z,5.37
2022-11-19T19:01:58.883Z,6.33
2022-11-19T19:04:27.339Z,8.73
2022-11-19T19:06:56.024Z,9.77
2022-11-19T19:09:24.886Z,10.97
2022-11-19T19:12:13.797Z,7.23
2022-11-19T19:14:44.770Z,6.17
2022-11-19T19:17:14.322Z,6.00
2022-11-19T19:19:42.795Z,9.23
2022-11-19T19:22:11.117Z,3.47
2022-11-19T19:24:39.466Z,4.10
2022-11-19T19:27:08.007Z,3.83
2022-11-19T19:29:36.670Z,2.27
2022-11-19T19:32:07.017Z,3.40
2022-11-19T19:34:36.034Z,2.60
2022-11-19T19:37:04.658Z,3.87
2022-11-19T19:39:33.038Z,3.20
2022-11-19T19:42:01.381Z,2.00
2022-11-19T19:44:29.800Z,2.20
2022-11-19T19:46:58.634Z,1.27
2022-11-19T19:49:28.588Z,3.13
2022-11-19T19:51:57.709Z,4.73
2022-11-19T19:54:26.144Z,3.77
2022-11-19T19:56:54.477Z,3.13
2022-11-19T19:59:23.137Z,5.90
2022-11-19T20:01:51.901Z,7.73
2022-11-19T20:04:20.249Z,5.90
2022-11-19T20:06:51.721Z,2.50
2022-11-19T20:09:20.128Z,2.60
2022-11-19T20:11:48.529Z,3.27
2022-11-19T20:14:16.855Z,4.47
2022-11-19T20:16:45.213Z,3.77
2022-11-19T20:19:15.009Z,4.07
2022-11-19T20:21:43.492Z,3.33
2022-11-19T20:24:14.028Z,5.40
2022-11-19T20:26:43.411Z,4.17
2022-11-19T20:29:13.834Z,3.20
2022-11-19T20:31:45.921Z,3.53
2022-11-19T20:34:14.671Z,3.83
2022-11-19T20:36:44.068Z,5.30
2022-11-19T20:39:14.285Z,4.53
2022-11-19T20:42:00.141Z,4.30
2022-11-19T20:44:28.448Z,3.53
2022-11-19T20:46:58.753Z,4.60
2022-11-19T20:49:28.841Z,4.00
2022-11-19T20:51:57.693Z,5.57
2022-11-19T20:54:27.936Z,3.30
2022-11-19T20:56:57.612Z,5.43
2022-11-19T20:59:27.792Z,3.00
2022-11-19T21:01:57.705Z,4.00
2022-11-19T21:04:28.478Z,4.13
2022-11-19T21:06:56.978Z,3.57
2022-11-19T21:09:25.693Z,4.57
2022-11-19T21:11:55.713Z,4.30
2022-11-19T21:14:24.265Z,6.30
2022-11-19T21:16:52.611Z,6.20
2022-11-19T21:19:21.340Z,8.90
2022-11-19T21:21:49.888Z,8.03
2022-11-19T21:24:18.253Z,7.07
2022-11-19T21:26:46.660Z,6.97
2022-11-19T21:29:16.431Z,7.17
2022-11-19T21:31:46.711Z,6.20
2022-11-19T21:34:17.831Z,6.17
2022-11-19T21:36:47.883Z,6.57
2022-11-19T21:39:17.990Z,4.53
2022-11-19T21:41:46.454Z,4.37
2022-11-19T21:44:21.117Z,4.00
2022-11-19T21:46:50.448Z,2.40
2022-11-19T21:49:19.414Z,2.33
2022-11-19T21:51:49.013Z,3.43
2022-11-19T21:54:17.334Z,3.43
2022-11-19T21:56:45.691Z,3.57
2022-11-19T21:59:14.097Z,5.33
2022-11-19T22:01:44.066Z,5.10
2022-11-19T22:04:13.592Z,6.43
2022-11-19T22:06:42.147Z,2.13
2022-11-19T22:09:10.422Z,1.60
2022-11-19T22:11:38.817Z,3.53
2022-11-19T22:14:09.033Z,3.40
2022-11-19T22:16:40.030Z,3.17
2022-11-19T22:19:12.080Z,4.43
2022-11-19T22:21:41.015Z,1.83
2022-11-19T22:24:09.517Z,1.90
2022-11-19T22:26:37.949Z,1.87
2022-11-19T22:29:06.338Z,3.13
2022-11-19T22:31:34.637Z,2.10
2022-11-19T22:34:02.976Z,1.50
2022-11-19T22:36:33.710Z,0.97
2022-11-19T22:39:02.126Z,2.00
2022-11-19T22:41:30.563Z,4.07
2022-11-19T22:43:59.614Z,4.57
2022-11-19T22:46:29.139Z,3.60
2022-11-19T22:48:57.429Z,2.23
2022-11-19T22:51:26.934Z,3.83
2022-11-19T22:53:57.073Z,1.13
2022-11-19T22:56:27.161Z,2.80
2022-11-19T22:58:56.187Z,2.77
2022-11-19T23:01:26.499Z,1.43
2022-11-19T23:03:55.650Z,2.70
2022-11-19T23:06:24.754Z,1.77
2022-11-19T23:08:53.573Z,1.57
2022-11-19T23:11:38.598Z,1.67
2022-11-19T23:14:08.909Z,2.13
2022-11-19T23:16:38.338Z,3.30
2022-11-19T23:19:08.053Z,1.10
2022-11-19T23:21:37.400Z,1.83
2022-11-19T23:24:06.217Z,1.30
2022-11-19T23:26:36.019Z,2.00
2022-11-19T23:29:05.216Z,2.97
2022-11-19T23:31:35.916Z,2.67
2022-11-19T23:34:04.929Z,2.63
2022-11-19T23:36:35.613Z,1.17
2022-11-19T23:39:05.452Z,2.40
2022-11-19T23:41:35.460Z,2.60
2022-11-19T23:44:04.145Z,0.97
2022-11-19T23:46:34.777Z,1.07
2022-11-19T23:49:04.161Z,1.53
2022-11-19T23:51:33.940Z,0.80
2022-11-19T23:54:02.930Z,0.47
2022-11-19T23:56:33.016Z,0.80
2022-11-19T23:59:04.104Z,0.80
